Time;durP1;ratioP1;P1;durP2;ratioP2;P2;SDS_P1;SDS_P2;PMS_P1;PMS_P2;Temp;Humidity;BMP_temperature;BMP_pressure;BME280_temperature;BME280_humidity;BME280_pressure;Samples;Min_cycle;Max_cycle;Signal;HPM_P1;HPM_P2
2022/05/12 00:01:06;;;;;;;;;3.33;3.00;;;;;35.55;21.90;101193.88;5055538;28;45404;-74
2022/05/12 00:03:31;;;;;;;;;2.00;2.00;;;;;35.52;22.02;101194.13;5055596;28;45373;-74
2022/05/12 00:05:57;;;;;;;;;1.00;1.00;;;;;35.61;21.57;101194.41;5055952;28;45415;-74
2022/05/12 00:08:22;;;;;;;;;2.33;2.00;;;;;35.63;21.58;101189.66;5052235;28;45404;-75
2022/05/12 00:10:47;;;;;;;;;2.00;1.00;;;;;35.52;21.55;101176.72;5054469;28;45668;-74
2022/05/12 00:13:13;;;;;;;;;3.00;3.00;;;;;35.51;21.54;101197.03;5054438;28;45511;-74
2022/05/12 00:15:39;;;;;;;;;2.00;2.00;;;;;35.50;21.90;101209.06;5055525;28;45496;-74
2022/05/12 00:18:06;;;;;;;;;4.67;2.67;;;;;35.53;21.62;101212.47;5055517;28;45496;-74
2022/05/12 00:20:35;;;;;;;;;2.00;2.00;;;;;35.53;21.45;101195.03;5055177;28;45421;-74
2022/05/12 00:23:08;;;;;;;;;4.33;3.67;;;;;35.64;21.64;101217.13;5055647;28;45372;-74
2022/05/12 00:25:34;;;;;;;;;3.00;3.00;;;;;35.35;21.90;101187.22;5055053;28;45491;-75
2022/05/12 00:27:59;;;;;;;;;4.00;3.00;;;;;35.59;21.47;101189.00;5055279;28;45459;-74
2022/05/12 00:30:24;;;;;;;;;3.00;2.00;;;;;35.69;21.62;101192.78;5054983;28;47351;-75
2022/05/12 00:32:50;;;;;;;;;2.67;2.00;;;;;35.70;21.41;101193.69;5055602;28;45367;-74
2022/05/12 00:35:17;;;;;;;;;3.00;3.00;;;;;35.81;21.41;101220.44;5055300;28;45513;-74
2022/05/12 00:37:43;;;;;;;;;2.00;2.00;;;;;35.75;21.67;101221.78;5055182;28;45381;-74
2022/05/12 00:40:10;;;;;;;;;3.00;2.33;;;;;35.83;21.62;101218.44;5054966;28;45498;-74
2022/05/12 00:42:36;;;;;;;;;4.33;3.00;;;;;35.64;22.09;101227.28;5037189;28;45536;-74
2022/05/12 00:45:03;;;;;;;;;5.00;3.00;;;;;35.54;21.92;101203.19;5055218;28;45495;-74
2022/05/12 00:47:28;;;;;;;;;5.33;3.00;;;;;35.71;21.69;101221.16;5054678;28;46890;-75
2022/05/12 00:49:54;;;;;;;;;3.00;2.00;;;;;35.78;21.28;101243.63;5055017;28;45319;-74
2022/05/12 00:52:26;;;;;;;;;4.33;2.00;;;;;35.52;21.96;101238.28;5055038;28;45324;-74
2022/05/12 00:54:56;;;;;;;;;2.00;2.00;;;;;35.50;21.79;101245.81;5054958;28;45335;-75
2022/05/12 00:57:28;;;;;;;;;2.00;2.00;;;;;35.50;21.87;101229.28;5036744;28;48635;-74
2022/05/12 00:59:56;;;;;;;;;6.67;2.67;;;;;35.45;22.07;101242.53;5054865;28;45473;-75
2022/05/12 01:02:22;;;;;;;;;5.00;2.00;;;;;35.45;22.09;101247.19;5033297;28;45436;-74
2022/05/12 01:04:48;;;;;;;;;3.00;2.00;;;;;35.32;22.07;101230.72;5034946;28;45379;-74
2022/05/12 01:07:14;;;;;;;;;4.00;3.00;;;;;35.20;21.80;101193.91;5016750;28;47086;-74
2022/05/12 01:09:41;;;;;;;;;4.00;4.00;;;;;35.54;21.91;101247.34;5034142;28;45481;-74
2022/05/12 01:12:07;;;;;;;;;7.33;3.33;;;;;35.55;21.46;101254.59;5034502;28;45337;-74
2022/05/12 01:14:33;;;;;;;;;4.00;4.00;;;;;35.53;21.63;101259.38;5034467;28;45395;-74
2022/05/12 01:17:01;;;;;;;;;3.00;3.00;;;;;35.64;22.01;101261.28;5034584;28;46275;-74
2022/05/12 01:19:33;;;;;;;;;2.67;2.00;;;;;35.62;21.85;101271.56;5034492;28;45522;-74
2022/05/12 01:22:00;;;;;;;;;3.67;3.67;;;;;35.59;21.96;101268.19;5034906;28;45388;-74
2022/05/12 01:24:38;;;;;;;;;4.00;3.00;;;;;35.61;21.74;101274.44;5034552;28;45305;-74
2022/05/12 01:27:19;;;;;;;;;3.67;3.67;;;;;35.54;21.90;101260.25;5037860;28;45550;-74
2022/05/12 01:29:53;;;;;;;;;4.33;2.67;;;;;35.60;21.52;101276.34;5037797;28;45255;-74
2022/05/12 01:32:20;;;;;;;;;6.33;2.33;;;;;35.65;21.79;101281.47;5037972;28;45375;-74
2022/05/12 01:34:46;;;;;;;;;5.00;4.33;;;;;35.52;21.84;101260.38;5019906;28;45344;-74
2022/05/12 01:37:12;;;;;;;;;5.00;3.00;;;;;34.99;21.77;101211.16;5037664;28;45448;-74
2022/05/12 01:39:38;;;;;;;;;3.00;3.00;;;;;35.28;21.71;101281.59;5019462;28;45417;-74
2022/05/12 01:42:06;;;;;;;;;3.33;3.00;;;;;35.17;21.87;101283.28;5038133;28;45391;-74
2022/05/12 01:44:32;;;;;;;;;3.67;3.67;;;;;35.17;21.96;101269.47;5037604;28;45541;-75
2022/05/12 01:46:58;;;;;;;;;3.00;3.00;;;;;35.32;21.67;101281.25;5019744;28;47305;-75
2022/05/12 01:49:24;;;;;;;;;3.33;3.33;;;;;35.30;21.46;101282.34;5019808;28;45376;-74
2022/05/12 01:51:53;;;;;;;;;6.67;4.00;;;;;35.32;21.70;101272.97;5037834;28;45421;-74
2022/05/12 01:54:19;;;;;;;;;4.33;4.00;;;;;35.44;21.65;101292.34;5037436;28;45585;-74
2022/05/12 01:56:44;;;;;;;;;4.00;4.00;;;;;35.16;21.79;101270.50;5037241;28;46018;-74
2022/05/12 01:59:10;;;;;;;;;6.33;4.00;;;;;35.12;21.80;101271.75;5037405;28;45494;-74
2022/05/12 02:01:35;;;;;;;;;5.67;4.67;;;;;35.07;21.57;101290.50;5049160;28;45505;-74
2022/05/12 02:04:02;;;;;;;;;8.00;5.00;;;;;34.81;21.83;101260.31;5057660;28;45484;-74
2022/05/12 02:06:27;;;;;;;;;4.00;4.00;;;;;35.22;21.90;101311.38;5056916;28;45434;-74
2022/05/12 02:08:52;;;;;;;;;5.67;5.00;;;;;35.00;21.26;101291.97;5057483;28;45394;-74
2022/05/12 02:11:18;;;;;;;;;6.00;4.67;;;;;34.92;21.77;101313.72;5057218;28;45611;-74
2022/05/12 02:13:43;;;;;;;;;6.67;5.00;;;;;34.89;21.67;101306.56;5057397;28;45384;-74
2022/05/12 02:16:09;;;;;;;;;5.00;4.00;;;;;34.86;21.72;101288.38;5057399;28;45435;-74
2022/05/12 02:18:34;;;;;;;;;4.67;3.00;;;;;34.91;22.00;101317.47;5057078;28;45611;-74
2022/05/12 02:20:59;;;;;;;;;8.00;7.33;;;;;34.99;21.76;101315.91;5057114;28;45391;-74
2022/05/12 02:23:25;;;;;;;;;5.00;5.00;;;;;34.97;21.60;101308.75;5057225;28;45436;-74
2022/05/12 02:25:50;;;;;;;;;8.67;5.00;;;;;35.00;21.84;101314.03;5057074;28;45524;-74
2022/05/12 02:28:16;;;;;;;;;7.00;5.00;;;;;35.25;21.66;101339.72;5057344;28;45348;-74
2022/05/12 02:30:42;;;;;;;;;12.67;7.00;;;;;35.19;21.61;101335.56;5057065;28;45490;-75
2022/05/12 02:33:08;;;;;;;;;6.00;6.00;;;;;35.00;21.77;101336.09;5057265;28;45383;-74
2022/05/12 02:35:35;;;;;;;;;5.00;5.00;;;;;34.96;21.69;101334.56;5056406;28;45566;-74
2022/05/12 02:38:00;;;;;;;;;5.33;5.33;;;;;34.91;21.79;101334.00;5038142;28;45550;-74
2022/05/12 02:40:28;;;;;;;;;5.00;5.00;;;;;34.96;21.95;101351.97;5056918;28;45422;-75
2022/05/12 02:42:54;;;;;;;;;5.00;4.00;;;;;35.12;21.63;101357.22;5038770;28;45617;-74
2022/05/12 02:45:19;;;;;;;;;5.33;4.00;;;;;34.96;21.53;101351.09;5056826;28;46290;-74
2022/05/12 02:47:45;;;;;;;;;6.00;5.33;;;;;34.94;21.29;101336.56;5056594;28;45479;-74
2022/05/12 02:50:12;;;;;;;;;5.00;4.00;;;;;34.95;21.58;101322.66;5056851;28;45379;-74
2022/05/12 02:52:38;;;;;;;;;7.33;6.33;;;;;34.87;21.44;101328.75;5038591;28;45341;-74
2022/05/12 02:55:04;;;;;;;;;4.00;4.00;;;;;35.04;21.83;101357.78;5056425;28;45423;-74
2022/05/12 02:57:29;;;;;;;;;6.00;4.33;;;;;34.89;21.45;101327.75;5056580;28;45452;-74
2022/05/12 02:59:54;;;;;;;;;5.00;5.00;;;;;35.08;21.48;101350.19;5056627;28;45370;-74
2022/05/12 03:02:20;;;;;;;;;6.67;5.67;;;;;35.07;21.36;101331.00;5056524;28;45355;-74
2022/05/12 03:04:45;;;;;;;;;5.00;5.00;;;;;35.26;21.50;101355.28;5056045;28;45367;-74
2022/05/12 03:07:10;;;;;;;;;4.00;3.00;;;;;35.04;20.93;101357.78;5056333;28;45374;-74
2022/05/12 03:09:37;;;;;;;;;3.33;3.33;;;;;34.93;20.75;101365.13;5038311;28;45452;-74
2022/05/12 03:12:03;;;;;;;;;3.00;2.00;;;;;34.85;20.55;101371.19;5056436;28;45466;-75
2022/05/12 03:14:28;;;;;;;;;4.00;1.00;;;;;34.63;20.50;101382.91;5056190;28;45404;-74
2022/05/12 03:16:54;;;;;;;;;2.33;1.00;;;;;34.30;20.56;101363.19;5056280;28;45317;-74
2022/05/12 03:19:21;;;;;;;;;1.00;0.33;;;;;34.19;20.77;101369.44;5037365;28;45397;-74
2022/05/12 03:21:47;;;;;;;;;3.00;2.00;;;;;34.27;20.41;101381.78;5038038;28;45248;-74
2022/05/12 03:24:14;;;;;;;;;3.33;0.67;;;;;34.16;20.68;101394.47;5056215;28;46504;-74
2022/05/12 03:26:40;;;;;;;;;0.67;0.67;;;;;33.81;20.66;101366.63;5056245;28;45425;-74
2022/05/12 03:29:06;;;;;;;;;2.00;1.00;;;;;33.85;20.92;101373.69;5056282;28;45423;-74
2022/05/12 03:31:31;;;;;;;;;3.00;1.00;;;;;33.97;20.85;101385.72;5038091;28;45533;-74
2022/05/12 03:33:56;;;;;;;;;0.67;0.67;;;;;33.66;20.69;101368.56;5055831;28;46433;-74
2022/05/12 03:36:22;;;;;;;;;2.67;1.33;;;;;33.81;20.82;101385.91;5037967;28;45404;-74
2022/05/12 03:38:48;;;;;;;;;3.67;2.00;;;;;33.73;21.04;101380.00;5055805;28;45389;-75
2022/05/12 03:41:13;;;;;;;;;5.00;2.67;;;;;33.56;21.21;101392.16;5056233;28;45356;-73
2022/05/12 03:46:23;;;;;;;;;3.00;1.00;;;;;33.58;21.36;101388.34;5056035;28;45381;-74
2022/05/12 03:48:49;;;;;;;;;1.00;1.00;;;;;33.59;21.11;101379.09;5055655;28;45405;-73
2022/05/12 03:51:15;;;;;;;;;1.00;1.00;;;;;33.72;21.47;101401.16;5055845;28;45317;-74
2022/05/12 03:53:40;;;;;;;;;1.33;1.33;;;;;33.75;20.97;101381.66;5055710;28;45765;-74
2022/05/12 03:56:07;;;;;;;;;1.33;1.33;;;;;33.75;21.13;101375.28;5037806;28;46065;-74
2022/05/12 03:58:33;;;;;;;;;4.00;2.00;;;;;33.76;21.04;101388.97;5055850;28;45516;-73
2022/05/12 04:00:59;;;;;;;;;0.67;0.67;;;;;33.79;21.04;101387.88;5055741;28;45431;-73
2022/05/12 04:03:24;;;;;;;;;3.00;1.67;;;;;33.56;20.98;101383.91;5055514;28;45355;-73
2022/05/12 04:05:50;;;;;;;;;3.00;2.67;;;;;33.56;21.56;101373.81;5055640;28;45450;-74
2022/05/12 04:08:15;;;;;;;;;2.33;1.67;;;;;33.64;21.19;101390.69;5056195;28;45331;-74
2022/05/12 04:10:41;;;;;;;;;2.67;1.67;;;;;33.63;21.56;101388.00;5055548;28;45352;-74
2022/05/12 04:13:07;;;;;;;;;4.67;0.67;;;;;33.75;21.03;101389.06;5055259;28;46472;-74
2022/05/12 04:15:32;;;;;;;;;1.67;0.67;;;;;33.77;21.09;101389.84;5055432;28;45318;-74
2022/05/12 04:18:04;;;;;;;;;1.00;0.67;;;;;33.79;21.17;101394.25;5055421;28;45391;-74
2022/05/12 04:20:32;;;;;;;;;1.67;1.67;;;;;33.67;21.37;101395.06;5037551;28;45543;-74
2022/05/12 04:22:58;;;;;;;;;2.33;2.00;;;;;33.61;21.29;101398.25;5055341;28;45423;-74
2022/05/12 04:25:24;;;;;;;;;1.67;0.67;;;;;33.64;21.53;101390.69;5055388;28;45395;-74
2022/05/12 04:27:50;;;;;;;;;1.33;1.33;;;;;33.87;21.44;101424.03;5055441;28;45448;-74
2022/05/12 04:30:18;;;;;;;;;0.67;0.67;;;;;33.77;21.13;101404.50;5055546;28;45367;-74
2022/05/12 04:32:44;;;;;;;;;5.00;2.67;;;;;33.81;21.57;101411.56;5036325;28;48198;-74
2022/05/12 04:35:12;;;;;;;;;3.33;1.67;;;;;33.89;21.32;101408.28;5055122;28;45503;-74
2022/05/12 04:37:47;;;;;;;;;6.67;1.67;;;;;33.79;21.07;101372.25;5055025;28;45467;-74
2022/05/12 04:40:21;;;;;;;;;2.67;2.00;;;;;33.97;21.27;101413.25;5037149;28;45615;-74
2022/05/12 04:42:49;;;;;;;;;2.67;1.67;;;;;33.89;21.28;101410.16;5054616;28;45438;-74
2022/05/12 04:45:16;;;;;;;;;0.67;0.67;;;;;34.05;20.88;101421.88;5054958;28;45341;-74
2022/05/12 04:47:42;;;;;;;;;3.33;1.67;;;;;34.16;20.95;101422.00;5054627;28;45257;-74
2022/05/12 04:50:11;;;;;;;;;2.00;2.00;;;;;34.21;20.95;101424.41;5055254;28;46183;-74
2022/05/12 04:52:37;;;;;;;;;3.00;2.33;;;;;34.19;20.68;101430.03;5036526;28;48545;-74
2022/05/12 04:55:03;;;;;;;;;1.67;1.67;;;;;34.16;20.75;101441.28;5054649;28;45497;-74
2022/05/12 04:57:35;;;;;;;;;4.33;2.00;;;;;33.94;20.91;101425.34;5055037;28;45464;-74
2022/05/12 05:00:01;;;;;;;;;2.33;1.67;;;;;33.98;20.87;101437.94;5055966;28;45438;-74
2022/05/12 05:02:26;;;;;;;;;2.33;1.33;;;;;33.72;20.99;101398.41;5039549;28;48289;-73
2022/05/12 05:04:51;;;;;;;;;2.33;2.33;;;;;34.15;21.01;101445.00;5054778;28;45347;-74
2022/05/12 05:07:17;;;;;;;;;1.67;1.67;;;;;34.19;21.01;101431.88;5043850;28;45462;-74
2022/05/12 05:09:43;;;;;;;;;6.33;2.33;;;;;34.18;20.96;101428.25;5057978;28;45426;-74
2022/05/12 05:12:08;;;;;;;;;3.33;3.33;;;;;34.15;21.03;101445.00;5045422;28;46366;-72
2022/05/12 05:14:34;;;;;;;;;4.00;4.00;;;;;33.73;20.89;101435.94;5037865;28;45392;-70
2022/05/12 05:16:59;;;;;;;;;4.00;3.00;;;;;33.68;21.16;101424.34;5037663;28;45651;-77
2022/05/12 05:19:25;;;;;;;;;2.67;1.33;;;;;33.81;21.09;101450.09;5022150;28;45287;-76
2022/05/12 05:21:50;;;;;;;;;3.00;2.67;;;;;33.93;21.18;101445.59;5025414;28;46356;-76
2022/05/12 05:24:15;;;;;;;;;1.67;1.67;;;;;34.08;21.28;101454.69;5018075;28;45414;-76
2022/05/12 05:26:41;;;;;;;;;3.00;2.67;;;;;34.18;21.05;101447.53;5016985;28;45269;-76
2022/05/12 05:29:07;;;;;;;;;2.00;2.00;;;;;34.17;20.96;101436.63;5025148;28;45276;-75
2022/05/12 05:31:36;;;;;;;;;2.67;2.00;;;;;34.14;20.79;101470.75;5017864;28;45356;-76
2022/05/12 05:34:01;;;;;;;;;2.33;2.33;;;;;34.05;21.20;101460.41;5024519;28;45408;-79
2022/05/12 05:36:27;;;;;;;;;3.67;2.67;;;;;33.69;20.89;101417.88;5017836;28;45512;-79
2022/05/12 05:38:52;;;;;;;;;3.00;3.00;;;;;34.09;20.81;101475.69;5031722;28;45372;-78
2022/05/12 05:41:18;;;;;;;;;2.33;2.33;;;;;33.94;20.95;101468.50;5009253;28;47306;-77
2022/05/12 05:43:44;;;;;;;;;3.33;3.00;;;;;33.68;21.31;101439.03;5026602;28;45495;-78
2022/05/12 05:46:10;;;;;;;;;4.00;3.00;;;;;34.06;21.31;101488.81;5020406;28;45464;-77
2022/05/12 05:48:35;;;;;;;;;3.33;2.33;;;;;34.10;21.20;101485.72;5032639;28;45545;-76
2022/05/12 05:53:44;;;;;;;;;6.00;2.67;;;;;34.02;21.16;101458.75;5017653;28;45509;-75
2022/05/12 05:56:14;;;;;;;;;3.00;2.67;;;;;34.21;21.22;101504.28;5021864;28;45273;-73
2022/05/12 05:58:41;;;;;;;;;4.33;3.67;;;;;34.27;21.42;101505.72;5030404;28;45518;-71
2022/05/12 06:01:06;;;;;;;;;5.00;3.67;;;;;34.15;21.01;101490.91;5037236;28;45701;-73
2022/05/12 06:03:32;;;;;;;;;5.00;3.00;;;;;34.25;21.20;101511.34;5019295;28;45383;-71
2022/05/12 06:05:57;;;;;;;;;3.33;2.00;;;;;34.45;20.80;101529.25;5037316;28;45438;-71
2022/05/12 06:08:23;;;;;;;;;2.67;2.67;;;;;34.47;21.10;101538.31;5037556;28;45410;-70
2022/05/12 06:10:49;;;;;;;;;2.00;2.00;;;;;34.58;20.68;101544.94;5035735;28;46395;-70
2022/05/12 06:13:15;;;;;;;;;2.50;2.50;;;;;34.51;20.17;101552.75;5036446;28;45362;-69
2022/05/12 06:15:41;;;;;;;;;3.00;1.33;;;;;34.52;20.13;101546.25;5037024;28;45391;-70
2022/05/12 06:18:08;;;;;;;;;2.67;2.67;;;;;34.66;20.39;101543.41;5003798;28;45565;-70
2022/05/12 06:20:34;;;;;;;;;2.33;2.33;;;;;34.37;20.32;101542.69;5016996;28;46554;-69
2022/05/12 06:22:59;;;;;;;;;2.00;2.00;;;;;34.31;20.08;101543.13;5016900;28;45202;-69
2022/05/12 06:25:25;;;;;;;;;2.67;1.33;;;;;34.36;20.11;101546.41;5017473;28;45392;-69
2022/05/12 06:27:51;;;;;;;;;5.67;3.67;;;;;34.48;20.36;101539.19;5016627;28;45344;-69
2022/05/12 06:30:18;;;;;;;;;3.00;1.67;;;;;34.51;20.52;101539.84;5016946;28;46333;-69
2022/05/12 06:32:44;;;;;;;;;3.00;3.00;;;;;34.53;20.50;101554.41;5016617;28;45511;-69
2022/05/12 06:35:12;;;;;;;;;2.33;2.33;;;;;34.50;20.80;101554.63;5016823;28;45450;-68
2022/05/12 06:37:38;;;;;;;;;2.00;2.00;;;;;34.40;20.70;101555.38;5017042;28;45591;-67
2022/05/12 06:40:05;;;;;;;;;4.00;2.00;;;;;34.52;20.45;101558.13;5016333;28;45382;-67
2022/05/12 06:42:31;;;;;;;;;2.33;1.67;;;;;34.53;20.38;101559.03;5016203;28;45418;-68
2022/05/12 06:44:56;;;;;;;;;3.67;2.67;;;;;34.58;20.65;101566.97;5016809;28;45559;-68
2022/05/12 06:47:22;;;;;;;;;3.33;3.33;;;;;34.52;20.38;101566.41;5016942;28;45333;-68
2022/05/12 06:49:51;;;;;;;;;2.67;2.67;;;;;34.53;20.34;101559.03;5016444;28;45490;-69
2022/05/12 06:52:17;;;;;;;;;2.00;2.00;;;;;34.49;20.26;101566.63;5016935;28;45306;-69
2022/05/12 06:54:44;;;;;;;;;3.00;2.00;;;;;34.60;19.84;101570.50;5016602;28;45198;-68
2022/05/12 06:57:10;;;;;;;;;0.67;0.67;;;;;34.57;20.39;101559.69;5016405;28;45330;-69
2022/05/12 06:59:39;;;;;;;;;5.00;4.00;;;;;34.56;20.17;101566.19;5016546;28;45428;-69
2022/05/12 07:02:06;;;;;;;;;2.00;2.00;;;;;34.48;20.26;101572.25;5032169;28;45491;-69
2022/05/12 07:04:32;;;;;;;;;3.33;2.33;;;;;34.38;20.47;101557.34;5036287;28;45458;-71
2022/05/12 07:06:58;;;;;;;;;2.67;2.67;;;;;34.36;20.12;101561.09;5036210;28;45588;-70
2022/05/12 07:09:24;;;;;;;;;4.00;2.67;;;;;34.39;19.66;101564.59;5019113;28;46414;-69
2022/05/12 07:11:50;;;;;;;;;2.00;2.00;;;;;34.29;20.22;101565.25;5021128;28;45486;-69
2022/05/12 07:14:17;;;;;;;;;3.67;3.33;;;;;34.40;19.98;101564.50;5033953;28;45412;-69
2022/05/12 07:16:44;;;;;;;;;3.00;2.67;;;;;34.45;19.94;101547.66;5032830;28;45545;-69
2022/05/12 07:19:11;;;;;;;;;2.67;2.67;;;;;34.49;20.23;101558.34;5032289;28;45395;-69
2022/05/12 07:27:04;;;;;;;;;4.00;3.00;;;;;34.72;19.85;101553.09;5031516;28;45399;-77
2022/05/12 07:29:34;;;;;;;;;2.67;2.00;;;;;34.82;19.92;101554.22;5011694;28;46043;-73
2022/05/12 07:31:59;;;;;;;;;4.00;4.00;;;;;34.85;19.44;101564.16;5031254;28;45186;-75
2022/05/12 07:34:25;;;;;;;;;4.67;3.67;;;;;34.67;20.09;101566.31;5028985;28;45533;-73
2022/05/12 07:36:52;;;;;;;;;5.67;3.67;;;;;34.64;19.88;101561.03;5031407;28;45551;-74
2022/05/12 07:39:22;;;;;;;;;6.33;4.67;;;;;34.63;19.57;101564.78;5031703;28;46606;-69
2022/05/12 07:41:48;;;;;;;;;4.00;3.00;;;;;34.73;19.84;101556.72;5031243;28;45638;-72
2022/05/12 07:44:16;;;;;;;;;4.33;4.33;;;;;34.82;20.02;101559.75;5030195;28;45385;-71
2022/05/12 07:46:43;;;;;;;;;5.00;4.00;;;;;34.78;20.03;101547.16;5032217;28;45614;-73
2022/05/12 07:49:08;;;;;;;;;5.00;4.00;;;;;34.64;20.00;101547.25;5014638;28;48043;-74
2022/05/12 07:51:33;;;;;;;;;6.33;4.67;;;;;34.64;19.65;101556.41;5015085;28;45399;-74
2022/05/12 07:53:59;;;;;;;;;4.00;2.33;;;;;34.68;19.69;101557.06;5028690;28;46015;-73
2022/05/12 07:56:26;;;;;;;;;4.67;4.00;;;;;34.40;19.48;101567.25;5031281;28;45851;-73
2022/05/12 07:58:56;;;;;;;;;2.67;2.67;;;;;34.18;19.45;101560.44;5032147;28;46098;-73
2022/05/12 08:01:23;;;;;;;;;4.33;3.00;;;;;34.05;20.21;101565.03;5031394;28;45459;-74
2022/05/12 08:03:49;;;;;;;;;3.67;3.67;;;;;34.05;20.19;101575.16;5032804;28;46523;-73
2022/05/12 08:06:16;;;;;;;;;5.00;5.00;;;;;34.07;20.45;101553.91;5031498;28;45585;-74
2022/05/12 08:08:43;;;;;;;;;5.00;5.00;;;;;34.41;20.03;101577.28;5031932;28;46223;-73
2022/05/12 08:11:10;;;;;;;;;4.00;4.00;;;;;34.60;20.11;101571.41;5016690;28;45913;-74
2022/05/12 08:13:35;;;;;;;;;6.00;2.33;;;;;34.69;19.51;101575.38;5050990;28;45501;-74
2022/05/12 08:16:02;;;;;;;;;4.00;3.00;;;;;34.63;19.37;101575.81;5051356;28;45366;-73
2022/05/12 08:18:28;;;;;;;;;2.00;1.00;;;;;34.26;19.85;101570.06;5054774;28;46601;-73
2022/05/12 08:20:54;;;;;;;;;3.00;3.00;;;;;34.22;19.87;101582.25;5053407;28;45399;-73
2022/05/12 08:23:20;;;;;;;;;3.00;3.00;;;;;34.46;20.16;101575.09;5052346;28;45496;-73
2022/05/12 08:25:47;;;;;;;;;4.33;3.00;;;;;34.66;19.56;101581.09;5052022;28;45470;-73
2022/05/12 08:28:17;;;;;;;;;7.00;5.00;;;;;34.73;19.60;101585.19;5052140;28;45418;-73
2022/05/12 08:30:44;;;;;;;;;5.00;4.00;;;;;34.78;19.71;101569.22;5052293;28;45988;-73
2022/05/12 08:33:10;;;;;;;;;4.00;4.00;;;;;34.96;19.32;101569.78;5032997;28;45440;-73
2022/05/12 08:35:35;;;;;;;;;4.67;3.67;;;;;35.06;19.96;101578.28;5054731;28;45459;-73
2022/05/12 08:38:01;;;;;;;;;4.00;4.00;;;;;35.12;19.51;101583.38;5050761;28;45618;-73
2022/05/12 08:40:48;;;;;;;;;5.33;3.33;;;;;35.12;19.74;101580.63;5052036;28;45316;-73
2022/05/12 08:43:21;;;;;;;;;7.33;3.33;;;;;35.25;19.56;101572.34;5033882;28;45417;-73
2022/05/12 08:45:47;;;;;;;;;4.00;3.00;;;;;35.36;19.20;101572.47;5051718;28;45443;-73
2022/05/12 08:48:15;;;;;;;;;4.00;3.00;;;;;35.53;19.08;101567.59;5050987;28;45975;-73
2022/05/12 08:50:41;;;;;;;;;6.00;4.00;;;;;35.39;18.48;101585.16;5053533;28;45438;-72
2022/05/12 08:53:29;;;;;;;;;3.00;3.00;;;;;34.99;18.78;101568.69;5053050;28;45632;-73
2022/05/12 08:55:59;;;;;;;;;4.00;4.00;;;;;35.21;19.43;101570.78;5032919;28;45429;-71
2022/05/12 08:58:30;;;;;;;;;3.00;3.00;;;;;35.45;18.90;101578.31;5051652;28;45402;-71
2022/05/12 09:01:00;;;;;;;;;5.00;3.00;;;;;35.55;19.61;101574.72;5051060;28;45881;-71
2022/05/12 09:03:34;;;;;;;;;2.67;2.67;;;;;35.49;18.78;101577.94;5052941;28;45438;-71
2022/05/12 09:06:00;;;;;;;;;4.00;2.00;;;;;35.62;18.52;101574.28;5052195;28;45437;-71
2022/05/12 09:08:50;;;;;;;;;2.00;2.00;;;;;35.73;18.71;101582.66;5048030;28;46148;-71
2022/05/12 09:11:27;;;;;;;;;2.00;2.00;;;;;35.85;18.93;101579.00;5047737;28;45501;-71
2022/05/12 09:13:54;;;;;;;;;5.00;3.00;;;;;35.93;19.17;101575.66;5031584;28;45546;-71
2022/05/12 09:16:19;;;;;;;;;1.67;1.67;;;;;35.90;18.49;101573.13;5050876;28;45553;-71
2022/05/12 09:18:45;;;;;;;;;2.33;1.00;;;;;35.89;18.91;101566.72;5051189;28;45336;-71
2022/05/12 09:21:18;;;;;;;;;3.00;1.00;;;;;35.79;19.00;101561.97;5032523;28;45493;-71
2022/05/12 09:23:44;;;;;;;;;4.33;3.00;;;;;35.73;19.08;101568.84;5049859;28;45586;-71
2022/05/12 09:26:35;;;;;;;;;3.67;2.00;;;;;35.97;18.63;101581.81;5033199;28;45496;-71
2022/05/12 09:29:28;;;;;;;;;4.33;2.00;;;;;35.81;18.01;101574.72;5048582;28;46040;-71
2022/05/12 09:32:03;;;;;;;;;3.00;3.00;;;;;35.86;18.02;101582.63;5048670;28;45405;-71
2022/05/12 09:34:38;;;;;;;;;2.67;2.00;;;;;35.99;19.07;101577.06;5036484;28;45694;-71
2022/05/12 09:37:12;;;;;;;;;4.67;3.67;;;;;36.02;18.11;101576.81;5051133;28;46468;-71
2022/05/12 09:39:41;;;;;;;;;4.33;2.00;;;;;36.07;18.07;101574.59;5051737;28;46005;-71
2022/05/12 09:42:17;;;;;;;;;2.67;2.00;;;;;35.84;18.41;101568.94;5051457;28;45441;-71
2022/05/12 09:45:02;;;;;;;;;4.00;3.00;;;;;35.99;17.92;101566.91;5026537;28;45448;-71
2022/05/12 09:47:30;;;;;;;;;4.00;3.00;;;;;36.12;18.17;101569.59;5053746;28;46557;-71
2022/05/12 09:50:17;;;;;;;;;2.25;2.00;;;;;36.12;18.52;101563.19;5054210;28;46382;-71
2022/05/12 09:53:00;;;;;;;;;3.75;2.25;;;;;36.11;18.54;101567.84;5052728;28;45509;-71
2022/05/12 09:55:56;;;;;;;;;4.00;4.00;;;;;36.15;18.18;101563.84;5053681;28;45425;-71
2022/05/12 09:58:37;;;;;;;;;4.67;3.33;;;;;36.16;17.87;101567.47;5031857;28;45555;-71
2022/05/12 10:01:18;;;;;;;;;4.00;3.00;;;;;36.22;17.45;101556.84;5053120;28;45528;-69
2022/05/12 10:09:31;;;;;;;;;3.00;2.00;;;;;36.50;17.81;101562.13;5054568;28;45407;-71
2022/05/12 10:12:23;;;;;;;;;4.00;1.00;;;;;36.51;17.62;101550.97;5050367;28;45521;-71
2022/05/12 10:14:53;;;;;;;;;5.67;2.33;;;;;36.38;17.67;101551.03;5035241;28;45847;-71
2022/05/12 10:17:37;;;;;;;;;5.67;3.33;;;;;36.39;18.11;101550.03;5033900;28;45668;-72
2022/05/12 10:20:08;;;;;;;;;1.00;1.00;;;;;36.56;17.70;101554.22;5049588;28;45551;-72
2022/05/12 10:22:54;;;;;;;;;1.75;1.75;;;;;36.54;18.93;101528.59;5053104;28;45465;-71
2022/05/12 10:25:42;;;;;;;;;2.00;2.00;;;;;36.65;17.78;101540.69;5053225;28;45387;-71
2022/05/12 10:28:23;;;;;;;;;3.33;3.00;;;;;36.61;17.49;101534.53;5051619;28;45399;-83
2022/05/12 10:31:23;;;;;;;;;3.50;2.50;;;;;36.45;17.35;101521.03;5038111;28;45539;-82
2022/05/12 10:33:53;;;;;;;;;2.00;2.00;;;;;36.14;18.04;101536.34;5055436;28;45521;-82
2022/05/12 10:36:40;;;;;;;;;2.00;2.00;;;;;36.20;17.96;101533.09;5056545;28;45423;-82
2022/05/12 10:39:35;;;;;;;;;5.00;4.00;;;;;36.01;17.71;101492.22;5057271;28;45345;-82
2022/05/12 10:42:12;;;;;;;;;4.00;2.75;;;;;36.53;17.57;101545.31;5056870;28;45391;-82
2022/05/12 10:45:02;;;;;;;;;1.00;0.75;;;;;36.27;17.40;101542.66;5054795;28;45701;-82
2022/05/12 10:47:54;;;;;;;;;2.50;2.00;;;;;35.98;17.93;101492.44;5056195;28;45557;-82
2022/05/12 10:50:22;;;;;;;;;1.25;1.25;;;;;36.42;17.91;101523.19;5056383;28;45478;-82
2022/05/12 10:53:22;;;;;;;;;3.25;2.00;;;;;36.50;17.32;101495.78;5056769;28;45436;-82
2022/05/12 10:56:12;;;;;;;;;2.50;1.75;;;;;36.64;17.28;101534.28;5055345;28;46302;-82
2022/05/12 10:59:00;;;;;;;;;1.50;1.50;;;;;36.34;17.49;101485.94;5037278;28;45953;-82
2022/05/12 11:01:53;;;;;;;;;2.75;2.00;;;;;36.45;17.40;101528.44;5038304;28;45384;-82
2022/05/12 11:04:32;;;;;;;;;1.50;1.00;;;;;36.37;17.71;101512.47;5056356;28;45354;-83
2022/05/12 11:07:07;;;;;;;;;2.75;2.00;;;;;36.51;17.73;101528.84;5038279;28;47382;-82
2022/05/12 11:09:37;;;;;;;;;3.50;1.00;;;;;36.96;17.38;101518.91;5038167;28;45602;-82
2022/05/12 11:12:28;;;;;;;;;3.00;3.00;;;;;36.71;17.28;101483.03;5056288;28;45317;-82
2022/05/12 11:15:07;;;;;;;;;1.00;1.00;;;;;36.49;16.93;101497.69;5038344;28;45554;-82
2022/05/12 11:17:36;;;;;;;;;2.00;1.00;;;;;36.83;17.21;101522.66;5055654;28;46569;-82
2022/05/12 11:20:27;;;;;;;;;4.00;2.00;;;;;36.63;17.48;101501.25;5038118;28;45543;-82
2022/05/12 11:23:05;;;;;;;;;2.00;2.00;;;;;36.91;16.82;101525.69;5056232;28;45466;-82
2022/05/12 11:25:59;;;;;;;;;3.67;1.00;;;;;36.58;16.84;101482.22;5056146;28;45341;-82
2022/05/12 11:31:38;;;;;;;;;5.00;2.00;;;;;36.97;17.21;101526.19;5056046;28;45372;-82
2022/05/12 11:34:08;;;;;;;;;3.00;2.00;;;;;36.89;17.28;101486.22;5037741;28;45547;-82
2022/05/12 11:36:42;;;;;;;;;2.00;2.00;;;;;37.06;17.15;101522.66;5055855;28;45519;-80
2022/05/12 11:39:31;;;;;;;;;4.33;2.33;;;;;37.17;16.72;101527.31;5055757;28;45561;-83
2022/05/12 11:42:27;;;;;;;;;4.00;1.00;;;;;37.25;16.93;101525.69;5037703;28;45594;-83
2022/05/12 11:45:01;;;;;;;;;1.75;1.75;;;;;37.19;17.02;101528.97;5055884;28;45489;-82
2022/05/12 11:47:57;;;;;;;;;2.00;2.00;;;;;36.81;17.71;101529.31;5055340;28;45655;-82
2022/05/12 11:50:40;;;;;;;;;3.00;2.00;;;;;36.91;17.01;101522.91;5015367;28;47134;-82
2022/05/12 11:53:24;;;;;;;;;1.00;1.00;;;;;36.92;16.93;101534.88;5056021;28;45772;-84
2022/05/12 11:56:04;;;;;;;;;2.00;2.00;;;;;36.91;17.17;101527.56;5037444;28;45518;-83